»·PEaware :: AAY383 KLAS-KSNA

AAY383 :: KLAS-KSNA

FLIGHT INFORMATION

Flight Status: Arrived
Operator:
Allegiant Air
More flights by this operator :: More flights under this callsign
Pilot: David C. (16084)
Aircraft: AIRBUS A320
(A320)
More flights by this aircraft type
Origin: KLAS McCarran Intl
United States
Destination: KSNA John Wayne-Orange Co
United States
More flights between these airports :: More routes between these airports
Route: RADYR1 SLVRR FEYLA DSNEE4
File this flight plan on PilotEdge
Remarks:
Altitude:
(Current/Filed)
26,000ft
Speed:
(Current/Filed)
477kts
Departed: 07-Apr-21 12:32 PM
Arrived: 07-Apr-21 01:11 PM
Distance/Time
Traveled:
196nm/0:39
Distance/Time
To Go:
Arrived

Flight Plot

Page will automatically refresh every two minutes.

Flight plan parsing failed; only flown route is shown


Map Options




Map Legend


Flown Route
Filed Route
Departure Airport
Arrival Airport
Navaid (VOR, NDB)
Fix

Horizontal Profiles

Position Reports

Time Latitude Longitude Heading Altitude Ground
Speed
07-Apr-21 11:43 36.085715 -115.154665 146 2188ft 0kts
07-Apr-21 11:44 36.085715 -115.154665 146 2188ft 0kts
07-Apr-21 11:45 36.085715 -115.154665 146 2188ft 0kts
07-Apr-21 11:46 36.085715 -115.154665 146 2188ft 0kts
07-Apr-21 11:47 36.085715 -115.154665 146 2188ft 0kts
07-Apr-21 11:48 36.085715 -115.154665 146 2188ft 0kts
07-Apr-21 11:49 36.085715 -115.154665 146 2188ft 0kts
07-Apr-21 11:50 36.085715 -115.154665 146 2188ft 0kts
07-Apr-21 11:51 36.085715 -115.154665 146 2188ft 0kts
07-Apr-21 11:52 36.085715 -115.154665 146 2188ft 0kts
07-Apr-21 11:53 36.085715 -115.154665 146 2188ft 0kts
07-Apr-21 11:54 36.085715 -115.154665 146 2188ft 0kts
07-Apr-21 11:55 36.085715 -115.154665 146 2188ft 0kts
07-Apr-21 11:56 36.085715 -115.154665 146 2188ft 0kts
07-Apr-21 11:57 36.085715 -115.154665 146 2188ft 0kts
07-Apr-21 11:58 36.085715 -115.154665 146 2188ft 0kts
07-Apr-21 11:59 36.085715 -115.154665 146 2188ft 0kts
07-Apr-21 12:00 36.085715 -115.154665 146 2188ft 0kts
07-Apr-21 12:01 36.085715 -115.154665 146 2188ft 0kts
07-Apr-21 12:02 36.085715 -115.154665 146 2188ft 0kts
07-Apr-21 12:03 36.085715 -115.154665 146 2188ft 0kts
07-Apr-21 12:04 36.085715 -115.154665 146 2188ft 0kts
07-Apr-21 12:05 36.085715 -115.154665 146 2188ft 0kts
07-Apr-21 12:06 36.085715 -115.154665 146 2188ft 0kts
07-Apr-21 12:07 36.085715 -115.154665 146 2188ft 0kts
07-Apr-21 12:08 36.085715 -115.154665 146 2188ft 0kts
07-Apr-21 12:09 36.085715 -115.154665 146 2188ft 0kts
07-Apr-21 12:10 36.085715 -115.154665 146 2188ft 0kts
07-Apr-21 12:11 36.085715 -115.154665 146 2188ft 0kts
07-Apr-21 12:12 36.085715 -115.154665 146 2188ft 0kts
07-Apr-21 12:13 36.085715 -115.154665 146 2188ft 0kts
07-Apr-21 12:14 36.085715 -115.154665 146 2188ft 0kts
07-Apr-21 12:15 36.085715 -115.154665 146 2188ft 0kts
07-Apr-21 12:16 36.085715 -115.154665 146 2188ft 0kts
07-Apr-21 12:17 36.085715 -115.154665 146 2188ft 0kts
07-Apr-21 12:18 36.085715 -115.154665 146 2188ft 0kts
07-Apr-21 12:19 36.085934 -115.154848 146 2188ft 2kts
07-Apr-21 12:20 36.086266 -115.154987 180 2188ft 0kts
07-Apr-21 12:21 36.086265 -115.154987 180 2188ft 0kts
07-Apr-21 12:22 36.086265 -115.154987 180 2188ft 0kts
07-Apr-21 12:23 36.086265 -115.154987 180 2188ft 0kts
07-Apr-21 12:25 36.086265 -115.154987 180 2188ft 0kts
07-Apr-21 12:26 36.086265 -115.154987 180 2188ft 0kts
07-Apr-21 12:27 36.086220 -115.154989 183 2188ft 0kts
07-Apr-21 12:28 36.086943 -115.155137 4 2188ft 11kts
07-Apr-21 12:29 36.091462 -115.155004 1 2188ft 17kts
07-Apr-21 12:30 36.097258 -115.152099 11 2188ft 11kts
07-Apr-21 12:31 36.098076 -115.153465 257 2188ft 12kts
07-Apr-21 12:32 36.075579 -115.166950 204 2484ft 187kts
07-Apr-21 12:33 36.024058 -115.198198 204 5327ft 224kts
07-Apr-21 12:34 35.957815 -115.230432 199 7837ft 281kts
07-Apr-21 12:35 35.882483 -115.264423 200 11146ft 297kts
07-Apr-21 12:36 35.801857 -115.300909 200 13603ft 334kts
07-Apr-21 12:37 35.708486 -115.343142 201 15525ft 367kts
07-Apr-21 12:38 35.612403 -115.389004 214 17880ft 373kts
07-Apr-21 12:39 35.540635 -115.480504 228 19348ft 373kts
07-Apr-21 12:40 35.471492 -115.573707 229 21834ft 366kts
07-Apr-21 12:41 35.402256 -115.666876 229 23671ft 373kts
07-Apr-21 12:42 35.331722 -115.761485 229 25338ft 380kts
07-Apr-21 12:43 35.258710 -115.858960 230 26120ft 404kts
07-Apr-21 12:44 35.178059 -115.963076 228 26116ft 434kts
07-Apr-21 12:45 35.093830 -116.069145 228 26119ft 435kts
07-Apr-21 12:46 35.009531 -116.175026 229 26121ft 435kts
07-Apr-21 12:46 34.938495 -116.264033 229 26086ft 441kts
07-Apr-21 12:48 34.839141 -116.389246 231 26062ft 454kts
07-Apr-21 12:49 34.752905 -116.498962 231 25721ft 430kts
07-Apr-21 12:50 34.672190 -116.595345 224 24598ft 394kts
07-Apr-21 12:51 34.588107 -116.677625 224 22550ft 382kts
07-Apr-21 12:51 34.520156 -116.743992 223 20932ft 372kts
07-Apr-21 12:52 34.445630 -116.827623 228 18995ft 358kts
07-Apr-21 12:53 34.374830 -116.909705 228 17081ft 349kts
07-Apr-21 12:54 34.305451 -116.989832 227 15123ft 341kts
07-Apr-21 12:56 34.218016 -117.068869 215 13507ft 335kts
07-Apr-21 12:56 34.150503 -117.113688 208 12874ft 332kts
07-Apr-21 12:57 34.066183 -117.158863 208 12391ft 331kts
07-Apr-21 12:58 33.985815 -117.210880 232 11326ft 326kts
07-Apr-21 12:59 33.928668 -117.290954 233 10161ft 294kts
07-Apr-21 13:00 33.878184 -117.362426 232 8921ft 279kts
07-Apr-21 13:01 33.829644 -117.430964 233 8076ft 251kts
07-Apr-21 13:02 33.824643 -117.506704 278 7017ft 234kts
07-Apr-21 13:03 33.832793 -117.583707 274 6035ft 225kts
07-Apr-21 13:04 33.833087 -117.657316 271 5102ft 218kts
07-Apr-21 13:05 33.833014 -117.730325 271 4051ft 215kts
07-Apr-21 13:06 33.810911 -117.783450 210 3000ft 185kts
07-Apr-21 13:07 33.767292 -117.810773 209 1926ft 172kts
07-Apr-21 13:08 33.728923 -117.835024 209 1062ft 133kts
07-Apr-21 13:09 33.696145 -117.855829 209 394ft 133kts
07-Apr-21 13:10 33.670641 -117.872043 205 65ft 29kts
07-Apr-21 13:11 33.669083 -117.871250 95 65ft 8kts
07-Apr-21 13:12 33.673770 -117.866685 28 65ft 23kts
07-Apr-21 13:13 33.678739 -117.863125 98 65ft 10kts
07-Apr-21 13:14 33.678696 -117.862790 98 65ft 0kts

Navigation Log

Ident Type
Flight plan parsing failed, navigation log unavailable